createdAt,value
2018-02-15T00:00:02.624Z,-0.28
2018-02-15T00:01:02.630Z,-0.31
2018-02-15T00:02:02.642Z,-0.28
2018-02-15T00:03:02.661Z,-0.29
2018-02-15T00:04:02.921Z,-0.32
2018-02-15T00:05:02.927Z,-0.35
2018-02-15T00:06:02.687Z,-0.44
2018-02-15T00:07:02.445Z,-0.5
2018-02-15T00:08:02.464Z,-0.46
2018-02-15T00:09:02.719Z,-0.57
2018-02-15T00:10:02.736Z,-0.56
2018-02-15T00:11:02.739Z,-0.61
2018-02-15T00:12:02.747Z,-0.64
2018-02-15T00:13:02.757Z,-0.7
2018-02-15T00:14:02.536Z,-0.7
2018-02-15T00:15:02.530Z,-0.74
2018-02-15T00:16:02.792Z,-0.83
2018-02-15T00:17:02.805Z,-0.74
2018-02-15T00:18:02.814Z,-0.8
2018-02-15T00:19:02.825Z,-0.72
2018-02-15T00:20:02.583Z,-0.78
2018-02-15T00:21:02.859Z,-0.83
2018-02-15T00:22:03.118Z,-0.86
2018-02-15T00:23:02.866Z,-0.8
2018-02-15T00:24:02.625Z,-0.96
2018-02-15T00:25:02.889Z,-0.85
2018-02-15T00:26:02.646Z,-0.86
2018-02-15T00:27:03.161Z,-0.85
2018-02-15T00:28:03.177Z,-0.86
2018-02-15T00:29:03.232Z,-0.91
2018-02-15T00:30:03.192Z,-0.96
2018-02-15T00:31:02.964Z,-0.91
2018-02-15T00:32:03.211Z,-0.99
2018-02-15T00:33:02.968Z,-0.86
2018-02-15T00:34:03.233Z,-0.97
2018-02-15T00:35:03.244Z,-0.99
2018-02-15T00:36:03.005Z,-1.05
2018-02-15T00:37:03.015Z,-0.93
2018-02-15T00:38:03.031Z,-0.96
2018-02-15T00:39:03.037Z,-1.04
2018-02-15T00:40:03.046Z,-1.11
2018-02-15T00:41:02.799Z,-1.15
2018-02-15T00:42:03.063Z,-1.17
2018-02-15T00:43:03.072Z,-1.07
2018-02-15T00:44:03.335Z,-1.07
2018-02-15T00:45:02.841Z,-1.05
2018-02-15T00:46:03.104Z,-0.99
2018-02-15T00:47:02.864Z,-1.01
2018-02-15T00:48:03.124Z,-1.08
2018-02-15T00:49:03.392Z,-1.12
2018-02-15T00:50:03.401Z,-1.12
2018-02-15T00:51:02.908Z,-1.11
2018-02-15T00:52:03.172Z,-1.08
2018-02-15T00:53:03.178Z,-0.96
2018-02-15T00:54:03.443Z,-1.02
2018-02-15T00:55:03.198Z,-0.85
2018-02-15T00:56:03.463Z,-0.71
2018-02-15T00:57:03.473Z,-0.75
2018-02-15T00:58:03.491Z,-0.74
2018-02-15T00:59:03.493Z,-0.82
2018-02-15T01:00:03.501Z,-0.71
2018-02-15T01:01:03.505Z,-0.9
2018-02-15T01:02:03.264Z,-1.05
2018-02-15T01:03:03.524Z,-1.01
2018-02-15T01:04:03.282Z,-1.04
2018-02-15T01:05:03.550Z,-1.12
2018-02-15T01:06:03.304Z,-1.14
2018-02-15T01:07:03.567Z,-1.08
2018-02-15T01:08:03.577Z,-1.15
2018-02-15T01:09:03.585Z,-1.14
2018-02-15T01:10:03.599Z,-1.08
2018-02-15T01:11:03.372Z,-1.12
2018-02-15T01:12:03.117Z,-0.99
2018-02-15T01:13:03.374Z,-0.96
2018-02-15T01:14:03.385Z,-0.96
2018-02-15T01:15:03.651Z,-1.08
2018-02-15T01:16:03.663Z,-1.11
2018-02-15T01:17:03.671Z,-1.15
2018-02-15T01:18:03.434Z,-1.11
2018-02-15T01:19:03.189Z,-1.01
2018-02-15T01:20:03.705Z,-1.11
2018-02-15T01:21:03.480Z,-0.97
2018-02-15T01:22:03.473Z,-1.09
2018-02-15T01:23:03.481Z,-1.14
2018-02-15T01:24:03.496Z,-1.15
2018-02-15T01:25:03.252Z,-1.15
2018-02-15T01:26:03.258Z,-1.17
2018-02-15T01:27:03.778Z,-1.23
2018-02-15T01:28:03.545Z,-1.27
2018-02-15T01:29:03.546Z,-1.2
2018-02-15T01:30:03.551Z,-1.19
2018-02-15T01:31:03.815Z,-1.12
2018-02-15T01:32:03.826Z,-1.12
2018-02-15T01:33:03.581Z,-1.08
2018-02-15T01:34:03.339Z,-1.23
2018-02-15T01:35:03.613Z,-1.2
2018-02-15T01:36:03.867Z,-1.23
2018-02-15T01:37:03.621Z,-1.23
2018-02-15T01:38:03.883Z,-1.22
2018-02-15T01:39:03.892Z,-1.3
2018-02-15T01:40:03.654Z,-1.26
2018-02-15T01:41:03.922Z,-1.22
2018-02-15T01:42:03.679Z,-1.15
2018-02-15T01:43:03.934Z,-1.26
2018-02-15T01:44:03.691Z,-1.25
2018-02-15T01:45:03.448Z,-1.26
2018-02-15T01:46:03.711Z,-1.33
2018-02-15T01:47:03.978Z,-1.32
2018-02-15T01:48:04.012Z,-1.33
2018-02-15T01:49:03.750Z,-1.15
2018-02-15T01:50:04.010Z,-1.25
2018-02-15T01:51:03.764Z,-1.27
2018-02-15T01:52:03.775Z,-1.17
2018-02-15T01:53:03.788Z,-1.29
2018-02-15T01:54:04.049Z,-1.37
2018-02-15T01:55:03.808Z,-1.37
2018-02-15T01:56:03.814Z,-1.4
2018-02-15T01:57:03.574Z,-1.47
2018-02-15T01:58:03.834Z,-1.5
2018-02-15T01:59:03.851Z,-1.58
2018-02-15T02:00:04.112Z,-1.56
2018-02-15T02:01:03.868Z,-1.5
2018-02-15T02:02:03.877Z,-1.41
2018-02-15T02:03:03.892Z,-1.43
2018-02-15T02:04:04.144Z,-1.44
2018-02-15T02:05:03.902Z,-1.32
2018-02-15T02:06:04.165Z,-1.22
2018-02-15T02:07:03.936Z,-1.27
2018-02-15T02:08:04.184Z,-1.3
2018-02-15T02:09:03.957Z,-1.29
2018-02-15T02:10:04.210Z,-1.25
2018-02-15T02:11:03.713Z,-1.35
2018-02-15T02:12:03.973Z,-1.38
2018-02-15T02:13:03.730Z,-1.38
2018-02-15T02:14:03.765Z,-1.32
2018-02-15T02:15:04.259Z,-1.25
2018-02-15T02:16:04.030Z,-1.25
2018-02-15T02:17:03.773Z,-1.22
2018-02-15T02:18:03.783Z,-1.25
2018-02-15T02:19:04.318Z,-1.35
2018-02-15T02:20:03.802Z,-1.23
2018-02-15T02:21:04.336Z,-1.25
2018-02-15T02:22:04.075Z,-1.23
2018-02-15T02:23:04.091Z,-1.37
2018-02-15T02:24:04.368Z,-1.35
2018-02-15T02:25:04.357Z,-1.37
2018-02-15T02:26:04.385Z,-1.27
2018-02-15T02:27:04.379Z,-1.37
2018-02-15T02:28:03.903Z,-1.27
2018-02-15T02:29:04.144Z,-1.3
2018-02-15T02:30:04.175Z,-1.38
2018-02-15T02:31:18.839Z,-1.46
2018-02-15T02:32:04.175Z,-1.41
2018-02-15T02:33:04.451Z,-1.46
2018-02-15T02:34:03.941Z,-1.43
2018-02-15T02:35:04.236Z,-1.32
2018-02-15T02:36:03.969Z,-1.32
2018-02-15T02:37:03.976Z,-1.27
2018-02-15T02:38:04.494Z,-1.44
2018-02-15T02:39:04.244Z,-1.58
2018-02-15T02:40:04.257Z,-1.66
2018-02-15T02:41:04.517Z,-1.76
2018-02-15T02:42:04.295Z,-1.69
2018-02-15T02:43:04.544Z,-1.72
2018-02-15T02:44:04.297Z,-1.72
2018-02-15T02:45:04.053Z,-1.74
2018-02-15T02:46:04.566Z,-1.69
2018-02-15T02:47:04.586Z,-1.71
2018-02-15T02:48:04.593Z,-1.8
2018-02-15T02:49:04.346Z,-1.72
2018-02-15T02:50:04.358Z,-1.77
2018-02-15T02:51:04.364Z,-1.72
2018-02-15T02:52:04.374Z,-1.71
2018-02-15T02:53:04.383Z,-1.66
2018-02-15T02:54:04.393Z,-1.68
2018-02-15T02:55:04.402Z,-1.51
2018-02-15T02:56:04.673Z,-1.53
2018-02-15T02:57:04.681Z,-1.59
2018-02-15T02:58:04.694Z,-1.56
2018-02-15T02:59:04.193Z,-1.47
2018-02-15T03:00:04.460Z,-1.46
2018-02-15T03:01:04.730Z,-1.46
2018-02-15T03:02:04.475Z,-1.51
2018-02-15T03:03:04.749Z,-1.43
2018-02-15T03:04:04.503Z,-1.3
2018-02-15T03:05:04.770Z,-1.38
2018-02-15T03:06:04.765Z,-1.35
2018-02-15T03:07:04.778Z,-1.26
2018-02-15T03:08:04.529Z,-1.19
2018-02-15T03:09:04.793Z,-1.26
2018-02-15T03:10:04.554Z,-1.26
2018-02-15T03:11:04.815Z,-1.37
2018-02-15T03:12:04.824Z,-1.44
2018-02-15T03:13:04.578Z,-1.41
2018-02-15T03:14:04.588Z,-1.4
2018-02-15T03:15:04.598Z,-1.44
2018-02-15T03:16:04.607Z,-1.46
2018-02-15T03:17:04.621Z,-1.47
2018-02-15T03:18:04.882Z,-1.47
2018-02-15T03:19:04.645Z,-1.48
2018-02-15T03:20:04.671Z,-1.51
2018-02-15T03:21:04.406Z,-1.61
2018-02-15T03:22:04.668Z,-1.54
2018-02-15T03:23:04.937Z,-1.58
2018-02-15T03:24:04.951Z,-1.48
2018-02-15T03:25:04.705Z,-1.58
2018-02-15T03:26:04.459Z,-1.51
2018-02-15T03:27:04.738Z,-1.44
2018-02-15T03:28:04.988Z,-1.35
2018-02-15T03:29:04.741Z,-1.37
2018-02-15T03:30:04.755Z,-1.48
2018-02-15T03:31:05.024Z,-1.4
2018-02-15T03:32:04.779Z,-1.46
2018-02-15T03:33:05.038Z,-1.32
2018-02-15T03:34:04.803Z,-1.41
2018-02-15T03:35:04.797Z,-1.35
2018-02-15T03:36:04.811Z,-1.65
2018-02-15T03:37:04.823Z,-1.68
2018-02-15T03:38:04.832Z,-1.62
2018-02-15T03:39:04.840Z,-1.58
2018-02-15T03:40:05.101Z,-1.71
2018-02-15T03:41:04.869Z,-1.79
2018-02-15T03:42:04.867Z,-1.71
2018-02-15T03:43:04.878Z,-1.72
2018-02-15T03:44:05.147Z,-1.59
2018-02-15T03:45:04.898Z,-1.61
2018-02-15T03:46:04.678Z,-1.64
2018-02-15T03:47:04.920Z,-1.64
2018-02-15T03:48:04.937Z,-1.61
2018-02-15T03:49:05.203Z,-1.71
2018-02-15T03:50:04.951Z,-1.76
2018-02-15T03:51:04.704Z,-1.71
2018-02-15T03:52:05.227Z,-1.76
2018-02-15T03:53:04.981Z,-1.77
2018-02-15T03:54:04.733Z,-1.8
2018-02-15T03:55:04.741Z,-1.68
2018-02-15T03:56:05.005Z,-1.66
2018-02-15T03:57:05.019Z,-1.74
2018-02-15T03:58:05.024Z,-1.71
2018-02-15T03:59:05.292Z,-1.61
2018-02-15T04:00:05.044Z,-1.79
2018-02-15T04:01:05.052Z,-1.69
2018-02-15T04:02:05.074Z,-1.72
2018-02-15T04:03:05.324Z,-1.58
2018-02-15T04:04:05.086Z,-1.69
2018-02-15T04:05:05.092Z,-1.61
2018-02-15T04:06:05.100Z,-1.58
2018-02-15T04:07:05.364Z,-1.51
2018-02-15T04:08:05.123Z,-1.62
2018-02-15T04:09:04.876Z,-1.64
2018-02-15T04:10:04.886Z,-1.61
2018-02-15T04:11:04.897Z,-1.53
2018-02-15T04:12:05.161Z,-1.51
2018-02-15T04:13:05.169Z,-1.43
2018-02-15T04:14:05.200Z,-1.43
2018-02-15T04:15:05.189Z,-1.44
2018-02-15T04:16:05.203Z,-1.46
2018-02-15T04:17:05.473Z,-1.58
2018-02-15T04:18:05.218Z,-1.64
2018-02-15T04:19:05.485Z,-1.58
2018-02-15T04:20:04.988Z,-1.54
2018-02-15T04:21:05.499Z,-1.64
2018-02-15T04:22:05.008Z,-1.71
2018-02-15T04:23:05.314Z,-1.54
2018-02-15T04:24:05.528Z,-1.5
2018-02-15T04:25:05.286Z,-1.59
2018-02-15T04:26:05.548Z,-1.62
2018-02-15T04:27:05.052Z,-1.68
2018-02-15T04:28:05.573Z,-1.76
2018-02-15T04:29:05.582Z,-2.05
2018-02-15T04:30:05.085Z,-2.16
2018-02-15T04:31:05.362Z,-2.22
2018-02-15T04:32:05.607Z,-2.19
2018-02-15T04:33:05.110Z,-2.32
2018-02-15T04:34:05.376Z,-2.19
2018-02-15T04:35:05.384Z,-2.16
2018-02-15T04:36:05.645Z,-2.12
2018-02-15T04:37:05.148Z,-2
2018-02-15T04:38:05.416Z,-1.98
2018-02-15T04:39:05.420Z,-2.15
2018-02-15T04:40:05.178Z,-2.05
2018-02-15T04:41:05.698Z,-2
2018-02-15T04:42:05.450Z,-1.98
2018-02-15T04:43:05.206Z,-1.79
2018-02-15T04:44:05.724Z,-1.82
2018-02-15T04:45:05.484Z,-1.86
2018-02-15T04:46:05.749Z,-1.86
2018-02-15T04:47:05.763Z,-1.95
2018-02-15T04:48:05.258Z,-1.87
2018-02-15T04:49:05.520Z,-1.83
2018-02-15T04:50:05.278Z,-1.97
2018-02-15T04:51:05.535Z,-1.92
2018-02-15T04:52:05.798Z,-1.94
2018-02-15T04:53:05.811Z,-1.87
2018-02-15T04:54:05.828Z,-1.82
2018-02-15T04:55:05.835Z,-1.82
2018-02-15T04:56:05.589Z,-1.79
2018-02-15T04:57:05.345Z,-1.8
2018-02-15T04:58:05.609Z,-1.97
2018-02-15T04:59:05.870Z,-1.82
2018-02-15T05:00:05.627Z,-1.95
2018-02-15T05:01:05.640Z,-2
2018-02-15T05:02:05.645Z,-1.95
2018-02-15T05:03:05.909Z,-2.05
2018-02-15T05:04:05.668Z,-1.87
2018-02-15T05:05:05.928Z,-1.89
2018-02-15T05:06:05.938Z,-1.83
2018-02-15T05:07:05.951Z,-1.62
2018-02-15T05:08:05.704Z,-1.74
2018-02-15T05:09:05.713Z,-1.74
2018-02-15T05:10:05.737Z,-1.68
2018-02-15T05:11:05.732Z,-1.58
2018-02-15T05:12:05.999Z,-1.76
2018-02-15T05:13:06.008Z,-1.72
2018-02-15T05:14:06.014Z,-1.69
2018-02-15T05:15:06.024Z,-1.68
2018-02-15T05:16:05.782Z,-1.72
2018-02-15T05:17:05.800Z,-1.56
2018-02-15T05:18:05.808Z,-1.62
2018-02-15T05:19:06.065Z,-1.43
2018-02-15T05:20:05.817Z,-1.48
2018-02-15T05:21:05.575Z,-1.5
2018-02-15T05:22:05.843Z,-1.41
2018-02-15T05:23:06.103Z,-1.48
2018-02-15T05:24:06.106Z,-1.47
2018-02-15T05:25:05.870Z,-1.46
2018-02-15T05:26:06.131Z,-1.41
2018-02-15T05:27:05.636Z,-1.4
2018-02-15T05:28:05.645Z,-1.3
2018-02-15T05:29:05.652Z,-1.37
2018-02-15T05:30:05.931Z,-1.26
2018-02-15T05:31:06.191Z,-1.3
2018-02-15T05:32:05.685Z,-1.27
2018-02-15T05:33:05.693Z,-1.35
2018-02-15T05:34:05.959Z,-1.37
2018-02-15T05:35:06.240Z,-1.33
2018-02-15T05:36:06.229Z,-1.37
2018-02-15T05:37:05.753Z,-1.35
2018-02-15T05:38:05.995Z,-1.37
2018-02-15T05:39:06.007Z,-1.33
2018-02-15T05:40:06.266Z,-1.33
2018-02-15T05:41:06.273Z,-1.3
2018-02-15T05:42:06.308Z,-1.33
2018-02-15T05:43:06.045Z,-1.15
2018-02-15T05:44:05.822Z,-1.23
2018-02-15T05:45:06.069Z,-1.07
2018-02-15T05:46:06.328Z,-1.01
2018-02-15T05:47:06.089Z,-0.96
2018-02-15T05:48:06.093Z,-0.99
2018-02-15T05:49:05.854Z,-1.09
2018-02-15T05:50:06.378Z,-1.12
2018-02-15T05:51:06.140Z,-0.94
2018-02-15T05:52:05.889Z,-0.86
2018-02-15T05:53:06.402Z,-0.83
2018-02-15T05:54:06.153Z,-0.93
2018-02-15T05:55:06.170Z,-0.86
2018-02-15T05:56:06.440Z,-0.8
2018-02-15T05:57:05.940Z,-0.77
2018-02-15T05:58:06.463Z,-0.83
2018-02-15T05:59:06.203Z,-0.7
2018-02-15T06:00:06.474Z,-0.68
2018-02-15T06:01:06.249Z,-0.75
2018-02-15T06:02:05.985Z,-0.71
2018-02-15T06:03:06.507Z,-0.75
2018-02-15T06:04:06.570Z,-0.62
2018-02-15T06:05:06.273Z,-0.74
2018-02-15T06:06:06.534Z,-0.71
2018-02-15T06:07:06.291Z,-0.72
2018-02-15T06:08:06.317Z,-0.72
2018-02-15T06:09:06.314Z,-0.72
2018-02-15T06:10:06.323Z,-0.75
2018-02-15T06:11:06.331Z,-0.75
2018-02-15T06:12:06.342Z,-0.68
2018-02-15T06:13:06.367Z,-0.65
2018-02-15T06:14:06.124Z,-0.67
2018-02-15T06:15:06.380Z,-0.75
2018-02-15T06:16:06.132Z,-0.8
2018-02-15T06:17:06.392Z,-0.75
2018-02-15T06:18:06.149Z,-0.78
2018-02-15T06:19:06.412Z,-0.74
2018-02-15T06:20:06.676Z,-0.7
2018-02-15T06:21:06.433Z,-0.71
2018-02-15T06:22:06.445Z,-0.67
2018-02-15T06:23:06.454Z,-0.68
2018-02-15T06:24:06.466Z,-0.72
2018-02-15T06:25:06.732Z,-0.83
2018-02-15T06:26:06.492Z,-0.94
2018-02-15T06:27:06.496Z,-0.78
2018-02-15T06:28:06.797Z,-0.65
2018-02-15T06:29:06.266Z,-0.67
2018-02-15T06:30:06.812Z,-0.77
2018-02-15T06:31:06.800Z,-0.9
2018-02-15T06:32:06.548Z,-0.86
2018-02-15T06:33:06.307Z,-0.94
2018-02-15T06:34:06.820Z,-0.85
2018-02-15T06:35:06.328Z,-0.91
2018-02-15T06:36:06.591Z,-1.11
2018-02-15T06:37:06.347Z,-1.15
2018-02-15T06:38:06.868Z,-1.19
2018-02-15T06:39:06.623Z,-1.23
2018-02-15T06:40:06.882Z,-1.01
2018-02-15T06:41:06.657Z,-1.04
2018-02-15T06:42:06.692Z,-1.17
2018-02-15T06:43:06.408Z,-1.2
2018-02-15T06:44:06.923Z,-1.17
2018-02-15T06:45:06.681Z,-1.22
2018-02-15T06:46:06.437Z,-1.19
2018-02-15T06:47:06.447Z,-1.11
2018-02-15T06:48:06.966Z,-1.22
2018-02-15T06:49:06.720Z,-1.25
2018-02-15T06:50:06.983Z,-1.22
2018-02-15T06:51:07.003Z,-1.15
2018-02-15T06:52:06.753Z,-1.11
2018-02-15T06:53:07.076Z,-0.99
2018-02-15T06:54:07.021Z,-0.99
2018-02-15T06:55:06.536Z,-1.01
2018-02-15T06:56:07.051Z,-0.93
2018-02-15T06:57:06.549Z,-1.05
2018-02-15T06:58:06.829Z,-1.09
2018-02-15T06:59:06.825Z,-1.05
2018-02-15T07:00:06.830Z,-0.93
2018-02-15T07:01:07.201Z,-0.77
2018-02-15T07:02:06.860Z,-0.61
2018-02-15T07:03:07.115Z,-0.71
2018-02-15T07:04:06.874Z,-0.67
2018-02-15T07:05:06.895Z,-0.56
2018-02-15T07:06:06.892Z,-0.54
2018-02-15T07:07:06.904Z,-0.52
2018-02-15T07:08:06.663Z,-0.61
2018-02-15T07:09:06.673Z,-0.57
2018-02-15T07:10:07.185Z,-0.61
2018-02-15T07:11:06.946Z,-0.67
2018-02-15T07:12:06.702Z,-0.43
2018-02-15T07:13:07.220Z,-0.36
2018-02-15T07:14:06.723Z,-0.43
2018-02-15T07:15:07.241Z,-0.28
2018-02-15T07:16:07.032Z,-0.17
2018-02-15T07:17:07.263Z,-0.18
2018-02-15T07:18:06.769Z,-0.03
2018-02-15T07:19:07.035Z,0
2018-02-15T07:20:07.295Z,-0.02
2018-02-15T07:21:07.053Z,0.07
2018-02-15T07:22:06.809Z,0.05
2018-02-15T07:23:07.075Z,0.04
2018-02-15T07:24:07.342Z,-0.07
2018-02-15T07:25:07.096Z,-0.18
2018-02-15T07:26:06.852Z,-0.25
2018-02-15T07:27:07.368Z,-0.21
2018-02-15T07:28:07.402Z,-0.21
2018-02-15T07:29:06.888Z,-0.23
2018-02-15T07:30:07.181Z,-0.15
2018-02-15T07:31:06.915Z,-0.17
2018-02-15T07:32:07.431Z,-0.18
2018-02-15T07:33:07.184Z,-0.14
2018-02-15T07:34:07.198Z,0.04
2018-02-15T07:35:06.953Z,0
2018-02-15T07:36:07.216Z,-0.03
2018-02-15T07:37:07.233Z,0.12
2018-02-15T07:38:07.237Z,0.19
2018-02-15T07:39:06.993Z,0.19
2018-02-15T07:40:07.258Z,0.29
2018-02-15T07:41:07.266Z,0.36
2018-02-15T07:42:07.533Z,0.4
2018-02-15T07:43:07.551Z,0.36
2018-02-15T07:44:07.319Z,0.37
2018-02-15T07:45:07.319Z,0.41
2018-02-15T07:46:07.075Z,0.31
2018-02-15T07:47:07.591Z,0.39
2018-02-15T07:48:07.348Z,0.32
2018-02-15T07:49:07.367Z,0.29
2018-02-15T07:50:07.379Z,0.32
2018-02-15T07:51:07.384Z,0.5
2018-02-15T07:52:07.396Z,0.5
2018-02-15T07:53:07.410Z,0.66
2018-02-15T07:54:07.419Z,0.68
2018-02-15T07:55:07.434Z,0.77
2018-02-15T07:56:07.186Z,0.88
2018-02-15T07:57:07.454Z,0.88
2018-02-15T07:58:07.467Z,0.77
2018-02-15T07:59:07.476Z,0.84
2018-02-15T08:00:07.491Z,0.84
2018-02-15T08:01:07.500Z,0.59
2018-02-15T08:02:07.772Z,0.73
2018-02-15T08:03:07.793Z,0.77
2018-02-15T08:04:07.810Z,0.63
2018-02-15T08:05:07.562Z,0.7
2018-02-15T08:06:07.563Z,0.8
2018-02-15T08:07:07.823Z,0.83
2018-02-15T08:08:07.586Z,0.7
2018-02-15T08:09:07.844Z,0.87
2018-02-15T08:10:07.606Z,0.8
2018-02-15T08:11:07.873Z,0.95
2018-02-15T08:12:07.878Z,0.94
2018-02-15T08:13:07.891Z,0.91
2018-02-15T08:14:07.649Z,0.8
2018-02-15T08:15:07.922Z,0.88
2018-02-15T08:16:07.419Z,0.92
2018-02-15T08:17:07.690Z,1.1
2018-02-15T08:18:07.699Z,1.12
2018-02-15T08:19:07.713Z,1.28
2018-02-15T08:20:07.488Z,1.16
2018-02-15T08:21:07.740Z,1.26
2018-02-15T08:22:07.749Z,1.12
2018-02-15T08:23:07.756Z,1.23
2018-02-15T08:24:07.972Z,1.2
2018-02-15T08:25:07.780Z,1.19
2018-02-15T08:26:07.544Z,1.22
2018-02-15T08:27:07.554Z,1.42
2018-02-15T08:28:07.817Z,1.44
2018-02-15T08:29:08.081Z,1.49
2018-02-15T08:30:07.591Z,1.41
2018-02-15T08:31:07.855Z,1.49
2018-02-15T08:32:07.864Z,1.5
2018-02-15T08:33:07.626Z,1.76
2018-02-15T08:34:08.140Z,1.78
2018-02-15T08:35:07.905Z,1.88
2018-02-15T08:36:07.928Z,1.89
2018-02-15T08:37:07.674Z,1.95
2018-02-15T08:38:07.948Z,2.1
2018-02-15T08:39:07.949Z,2.24
2018-02-15T08:40:07.966Z,2.25
2018-02-15T08:41:07.735Z,2.31
2018-02-15T08:42:07.990Z,2.42
2018-02-15T08:43:07.754Z,2.39
2018-02-15T08:44:07.759Z,2.53
2018-02-15T08:45:08.028Z,2.68
2018-02-15T08:46:08.287Z,2.56
2018-02-15T08:47:08.051Z,2.57
2018-02-15T08:48:07.815Z,2.42
2018-02-15T08:49:08.077Z,2.32
2018-02-15T08:50:08.347Z,2.43
2018-02-15T08:51:08.394Z,2.42
2018-02-15T08:52:08.145Z,2.46
2018-02-15T08:53:08.378Z,2.46
2018-02-15T08:54:08.393Z,2.42
2018-02-15T08:55:08.410Z,2.43
2018-02-15T08:56:08.173Z,2.5
2018-02-15T08:57:07.925Z,2.62
2018-02-15T08:58:08.528Z,2.44
2018-02-15T08:59:08.199Z,2.54
2018-02-15T09:00:08.213Z,2.56
2018-02-15T09:01:08.475Z,2.54
2018-02-15T09:02:08.241Z,2.56
2018-02-15T09:03:08.252Z,2.69
2018-02-15T09:04:08.264Z,2.53
2018-02-15T09:05:08.535Z,2.56
2018-02-15T09:06:08.289Z,2.62
2018-02-15T09:07:08.051Z,2.54
2018-02-15T09:08:08.063Z,2.47
2018-02-15T09:09:08.581Z,2.49
2018-02-15T09:10:08.592Z,2.62
2018-02-15T09:11:08.604Z,2.62
2018-02-15T09:12:08.369Z,2.46
2018-02-15T09:13:08.398Z,2.61
2018-02-15T09:14:08.392Z,2.68
2018-02-15T09:15:08.407Z,2.77
2018-02-15T09:16:08.415Z,2.86
2018-02-15T09:17:08.438Z,2.83
2018-02-15T09:18:08.447Z,2.98
2018-02-15T09:19:08.461Z,3.01
2018-02-15T09:20:08.222Z,3.1
2018-02-15T09:21:08.233Z,3.31
2018-02-15T09:22:08.500Z,3.29
2018-02-15T09:23:08.546Z,3.21
2018-02-15T09:24:08.535Z,3.34
2018-02-15T09:25:08.788Z,3.58
2018-02-15T09:26:08.555Z,3.59
2018-02-15T09:27:08.894Z,3.69
2018-02-15T09:28:08.579Z,3.77
2018-02-15T09:29:08.601Z,3.65
2018-02-15T09:30:08.613Z,3.74
2018-02-15T09:31:08.624Z,3.78
2018-02-15T09:32:08.638Z,3.73
2018-02-15T09:33:08.911Z,3.8
2018-02-15T09:34:08.414Z,3.87
2018-02-15T09:35:08.681Z,4.04
2018-02-15T09:36:08.965Z,4.22
2018-02-15T09:37:08.708Z,4.17
2018-02-15T09:38:08.989Z,4.32
2018-02-15T09:39:08.484Z,4.2
2018-02-15T09:40:08.514Z,4.26
2018-02-15T09:41:08.510Z,4.49
2018-02-15T09:42:08.781Z,4.28
2018-02-15T09:43:09.050Z,4.24
2018-02-15T09:44:08.805Z,4.28
2018-02-15T09:45:08.821Z,4.32
2018-02-15T09:46:08.833Z,4.37
2018-02-15T09:47:09.119Z,4.34
2018-02-15T09:48:08.867Z,4.42
2018-02-15T09:49:08.885Z,4.23
2018-02-15T09:50:08.893Z,4.3
2018-02-15T09:51:09.166Z,4.2
2018-02-15T09:52:08.920Z,4.41
2018-02-15T09:53:08.956Z,4.42
2018-02-15T09:54:08.948Z,4.53
2018-02-15T09:55:08.965Z,4.62
2018-02-15T09:56:08.977Z,4.6
2018-02-15T09:57:09.247Z,4.7
2018-02-15T09:58:09.261Z,4.59
2018-02-15T09:59:09.024Z,4.84
2018-02-15T10:00:09.039Z,4.9
2018-02-15T10:01:09.071Z,5.02
2018-02-15T10:02:09.063Z,5.1
2018-02-15T10:03:08.823Z,5.02
2018-02-15T10:04:09.346Z,5.1
2018-02-15T10:05:09.384Z,5.1
2018-02-15T10:06:08.870Z,5.21
2018-02-15T10:07:09.147Z,5.29
2018-02-15T10:08:09.409Z,5.3
2018-02-15T10:09:09.168Z,5.3
2018-02-15T10:10:09.449Z,5.41
2018-02-15T10:11:09.193Z,5.47
2018-02-15T10:12:09.208Z,5.54
2018-02-15T10:13:09.230Z,5.69
2018-02-15T10:14:09.492Z,5.71
2018-02-15T10:15:09.512Z,5.66
2018-02-15T10:16:09.517Z,5.66
2018-02-15T10:17:09.532Z,5.65
2018-02-15T10:18:09.306Z,5.75
2018-02-15T10:19:09.059Z,5.79
2018-02-15T10:20:09.324Z,5.73
2018-02-15T10:22:09.126Z,5.47
2018-02-15T10:23:09.370Z,5.32
2018-02-15T10:24:09.132Z,5.28
2018-02-15T10:25:09.654Z,5.25
2018-02-15T10:26:09.668Z,5.08
2018-02-15T10:27:09.440Z,5.18
2018-02-15T10:28:09.443Z,5.04
2018-02-15T10:29:09.461Z,5.17
2018-02-15T10:30:09.492Z,5.1
2018-02-15T10:31:09.738Z,5.18
2018-02-15T10:32:09.512Z,5.3
2018-02-15T10:33:09.514Z,5.26
2018-02-15T10:34:09.310Z,5.32
2018-02-15T10:35:09.806Z,4.99
2018-02-15T10:36:09.570Z,4.87
2018-02-15T10:37:09.826Z,4.77
2018-02-15T10:38:09.587Z,4.82
2018-02-15T10:39:09.602Z,4.89
2018-02-15T10:40:09.874Z,5.05
2018-02-15T10:41:09.636Z,4.92
2018-02-15T10:42:09.908Z,4.94
2018-02-15T10:43:09.664Z,4.99
2018-02-15T10:44:09.430Z,5.15
2018-02-15T10:45:09.690Z,5.26
2018-02-15T10:46:09.957Z,5.36
2018-02-15T10:47:09.722Z,5.35
2018-02-15T10:48:09.733Z,5.56
2018-02-15T10:49:09.750Z,5.54
2018-02-15T10:50:09.510Z,5.5
2018-02-15T10:51:09.831Z,5.68
2018-02-15T10:52:10.048Z,5.76
2018-02-15T10:53:09.818Z,5.89
2018-02-15T10:54:10.077Z,5.8
2018-02-15T10:55:09.596Z,5.84
2018-02-15T10:56:09.854Z,5.76
2018-02-15T10:57:09.865Z,5.86
2018-02-15T10:58:09.628Z,5.62
2018-02-15T10:59:09.655Z,5.66
2018-02-15T11:00:10.164Z,5.76
2018-02-15T11:01:09.936Z,5.73
2018-02-15T11:02:09.943Z,5.75
2018-02-15T11:03:10.221Z,5.94
2018-02-15T11:04:10.226Z,5.93
2018-02-15T11:05:09.992Z,5.84
2018-02-15T11:06:10.255Z,5.75
2018-02-15T11:07:10.017Z,5.71
2018-02-15T11:08:10.288Z,5.71
2018-02-15T11:09:10.304Z,5.8
2018-02-15T11:10:09.812Z,5.82
2018-02-15T11:11:10.085Z,5.84
2018-02-15T11:12:09.840Z,5.9
2018-02-15T11:13:09.854Z,5.71
2018-02-15T11:14:10.378Z,5.75
2018-02-15T11:15:10.156Z,5.86
2018-02-15T11:16:10.156Z,5.87
2018-02-15T11:17:09.915Z,5.91
2018-02-15T11:18:10.447Z,5.86
2018-02-15T11:19:10.454Z,5.75
2018-02-15T11:20:10.468Z,5.66
2018-02-15T11:21:09.975Z,5.43
2018-02-15T11:22:10.242Z,5.47
2018-02-15T11:23:10.268Z,5.43
2018-02-15T11:24:10.020Z,5.36
2018-02-15T11:25:10.289Z,5.38
2018-02-15T11:26:10.605Z,5.51
2018-02-15T11:27:10.313Z,5.47
2018-02-15T11:28:10.328Z,5.66
2018-02-15T11:29:10.343Z,5.59
2018-02-15T11:30:10.373Z,5.66
2018-02-15T11:31:10.374Z,5.75
2018-02-15T11:32:10.393Z,5.79
2018-02-15T11:33:10.408Z,5.65
2018-02-15T11:34:10.422Z,5.66
2018-02-15T11:35:10.455Z,5.65
2018-02-15T11:36:10.452Z,5.57
2018-02-15T11:37:10.214Z,5.62
2018-02-15T11:38:10.226Z,5.66
2018-02-15T11:39:10.746Z,5.56
2018-02-15T11:40:10.511Z,5.54
2018-02-15T11:41:10.271Z,5.72
2018-02-15T11:42:10.792Z,5.68
2018-02-15T11:43:10.803Z,5.86
2018-02-15T11:44:10.571Z,5.98
2018-02-15T11:45:10.587Z,5.9
2018-02-15T11:46:10.591Z,6.02
2018-02-15T11:47:10.606Z,5.86
2018-02-15T11:48:10.620Z,6.02
2018-02-15T11:49:10.900Z,5.91
2018-02-15T11:50:10.656Z,5.73
2018-02-15T11:51:10.675Z,5.83
2018-02-15T11:52:10.437Z,5.65
2018-02-15T11:53:10.951Z,5.62
2018-02-15T11:54:10.717Z,5.62
2018-02-15T11:55:10.987Z,5.75
2018-02-15T11:56:10.508Z,5.73
2018-02-15T11:57:10.511Z,5.72
2018-02-15T11:58:11.033Z,5.73
2018-02-15T11:59:11.052Z,5.62
2018-02-15T12:00:11.053Z,5.64
2018-02-15T12:01:10.830Z,5.46
2018-02-15T12:02:10.579Z,5.61
2018-02-15T12:03:11.101Z,5.47
2018-02-15T12:04:10.619Z,5.44
2018-02-15T12:05:10.883Z,5.29
2018-02-15T12:06:10.638Z,5.39
2018-02-15T12:07:11.159Z,5.39
2018-02-15T12:08:11.174Z,5.56
2018-02-15T12:09:10.944Z,5.62
2018-02-15T12:10:10.703Z,5.65
2018-02-15T12:11:10.986Z,5.75
2018-02-15T12:12:10.981Z,5.73
2018-02-15T12:13:11.261Z,5.91
2018-02-15T12:14:11.272Z,5.84
2018-02-15T12:15:11.282Z,5.86
2018-02-15T12:16:11.041Z,5.91
2018-02-15T12:17:10.801Z,5.97
2018-02-15T12:18:11.070Z,6.02
2018-02-15T12:19:11.334Z,5.94
2018-02-15T12:20:10.848Z,5.99
2018-02-15T12:21:11.452Z,6.05
2018-02-15T12:22:10.871Z,6.16
2018-02-15T12:23:11.410Z,6.02
2018-02-15T12:24:11.156Z,5.93
2018-02-15T12:25:11.172Z,5.99
2018-02-15T12:26:11.188Z,5.97
2018-02-15T12:27:11.452Z,5.97
2018-02-15T12:28:10.962Z,5.83
2018-02-15T12:29:10.976Z,5.69
2018-02-15T12:30:11.255Z,5.73
2018-02-15T12:31:11.268Z,5.75
2018-02-15T12:32:11.534Z,5.75
2018-02-15T12:33:11.550Z,5.83
2018-02-15T12:34:11.567Z,5.91
2018-02-15T12:35:11.074Z,5.83
2018-02-15T12:36:11.596Z,5.69
2018-02-15T12:37:11.102Z,5.68
2018-02-15T12:38:11.637Z,5.83
2018-02-15T12:39:11.391Z,5.73
2018-02-15T12:40:11.658Z,5.69
2018-02-15T12:41:11.167Z,5.66
2018-02-15T12:42:11.433Z,5.64
2018-02-15T12:43:11.704Z,5.71
2018-02-15T12:44:11.717Z,5.68
2018-02-15T12:45:11.475Z,5.76
2018-02-15T12:46:11.240Z,5.91
2018-02-15T12:47:11.587Z,5.9
2018-02-15T12:48:11.601Z,6.04
2018-02-15T12:49:11.536Z,5.98
2018-02-15T12:50:11.824Z,6.11
2018-02-15T12:51:11.573Z,6.22
2018-02-15T12:52:11.585Z,6.19
2018-02-15T12:53:11.348Z,6.14
2018-02-15T12:54:11.880Z,6.12
2018-02-15T12:55:11.646Z,6.11
2018-02-15T12:56:11.970Z,6.07
2018-02-15T12:57:11.917Z,5.99
2018-02-15T12:58:11.684Z,6.07
2018-02-15T12:59:11.997Z,6.04
2018-02-15T13:00:11.708Z,6.11
2018-02-15T13:01:12.016Z,6.14
2018-02-15T13:02:11.505Z,6.01
2018-02-15T13:03:11.759Z,6.12
2018-02-15T13:04:12.028Z,6.09
2018-02-15T13:05:11.780Z,6.26
2018-02-15T13:06:11.796Z,6.04
2018-02-15T13:07:11.813Z,5.93